Time;durP1;ratioP1;P1;durP2;ratioP2;P2;SDS_P1;SDS_P2;PMS_P1;PMS_P2;Temp;Humidity;BMP_temperature;BMP_pressure;BME280_temperature;BME280_humidity;BME280_pressure;Samples;Min_cycle;Max_cycle;Signal;HPM_P1;HPM_P2
2023/01/22 00:00:19;;;;;;;;;;;;;;;8.39;89.46;99699.53;4981492;28;20030;-94
2023/01/22 00:02:44;;;;;;;;;;;;;;;8.54;88.27;99704.72;4973085;28;19925;-89
2023/01/22 00:05:09;;;;;;;;;;;;;;;8.58;87.64;99701.16;4967289;28;19949;-92
2023/01/22 00:07:35;;;;;;;;;;;;;;;8.66;86.54;99701.09;4996569;28;20306;-92
2023/01/22 00:10:00;;;;;;;;;;;;;;;8.62;86.32;99702.03;5000111;28;20427;-91
2023/01/22 00:12:26;;;;;;;;;;;;;;;8.66;86.23;99706.38;4996068;28;20020;-88
2023/01/22 00:14:51;;;;;;;;;;;;;;;8.68;85.38;99694.09;4986429;28;19926;-91
2023/01/22 00:17:16;;;;;;;;;;;;;;;8.73;84.73;99701.97;4988508;28;19922;-92
2023/01/22 00:19:42;;;;;;;;;;;;;;;8.79;85.29;99691.41;4989481;28;19929;-91
2023/01/22 00:22:09;;;;;;;;;;;;;;;8.42;85.77;99681.09;4976601;28;19929;-93
2023/01/22 00:24:34;;;;;;;;;;;;;;;8.84;84.76;99688.72;4987966;28;19922;-92
2023/01/22 00:27:00;;;;;;;;;;;;;;;8.75;84.63;99700.19;5011467;28;19960;-92
2023/01/22 00:29:25;;;;;;;;;;;;;;;8.60;84.67;99698.53;5020673;28;19924;-91
2023/01/22 00:31:50;;;;;;;;;;;;;;;8.59;85.74;99707.31;4992889;28;19926;-93
2023/01/22 00:34:17;;;;;;;;;;;;;;;8.54;85.85;99712.59;5005381;28;19928;-93
2023/01/22 00:36:42;;;;;;;;;;;;;;;8.60;85.88;99717.81;4990264;28;20002;-92
2023/01/22 00:39:08;;;;;;;;;;;;;;;8.59;86.33;99713.44;4990872;28;20028;-92
2023/01/22 00:41:41;;;;;;;;;;;;;;;8.52;86.53;99716.13;4988975;28;20001;-94
2023/01/22 00:44:07;;;;;;;;;;;;;;;8.71;86.22;99714.22;4989384;28;19922;-93
2023/01/22 00:46:32;;;;;;;;;;;;;;;8.53;86.43;99713.47;4991091;28;19932;-93
2023/01/22 00:49:02;;;;;;;;;;;;;;;8.71;85.47;99716.84;4998760;28;19917;-92
2023/01/22 00:51:28;;;;;;;;;;;;;;;8.51;86.20;99720.50;5002985;28;19975;-93
2023/01/22 00:53:54;;;;;;;;;;;;;;;8.15;88.04;99724.16;4988809;28;20012;-90
2023/01/22 00:56:19;;;;;;;;;;;;;;;8.01;90.02;99724.22;4986703;28;20025;-92
2023/01/22 00:58:45;;;;;;;;;;;;;;;8.12;90.49;99729.44;4987625;28;19918;-92
2023/01/22 01:01:12;;;;;;;;;;;;;;;8.57;88.95;99730.09;4990291;28;19930;-93
2023/01/22 01:03:40;;;;;;;;;;;;;;;8.78;86.20;99724.69;5008007;28;19917;-91
2023/01/22 01:06:07;;;;;;;;;;;;;;;8.87;86.20;99729.03;5006035;28;20418;-94
2023/01/22 01:08:36;;;;;;;;;;;;;;;8.89;85.39;99727.25;4998405;28;19964;-93
2023/01/22 01:11:04;;;;;;;;;;;;;;;8.78;85.83;99740.47;4985792;28;19984;-93
2023/01/22 01:13:31;;;;;;;;;;;;;;;8.88;85.17;99753.56;4987213;28;19922;-94
2023/01/22 01:16:01;;;;;;;;;;;;;;;8.76;85.40;99765.06;4987571;28;20631;-93
2023/01/22 01:18:26;;;;;;;;;;;;;;;8.78;85.85;99772.03;4987901;28;19922;-93
2023/01/22 01:20:53;;;;;;;;;;;;;;;8.71;86.05;99778.25;4989096;28;19925;-91
2023/01/22 01:23:18;;;;;;;;;;;;;;;8.66;86.50;99785.25;4995114;28;19941;-90
2023/01/22 01:25:44;;;;;;;;;;;;;;;8.38;86.50;99787.13;4986096;28;19922;-91
2023/01/22 01:28:09;;;;;;;;;;;;;;;8.57;87.20;99790.56;5013846;28;19918;-91
2023/01/22 01:30:34;;;;;;;;;;;;;;;8.80;85.68;99782.56;5022191;28;20328;-89
2023/01/22 01:33:00;;;;;;;;;;;;;;;8.94;85.13;99779.81;5024670;28;19917;-89
2023/01/22 01:35:25;;;;;;;;;;;;;;;8.82;84.54;99782.53;5017968;28;19964;-88
2023/01/22 01:37:52;;;;;;;;;;;;;;;8.77;84.89;99769.41;5027592;28;19930;-92
2023/01/22 01:40:17;;;;;;;;;;;;;;;8.58;85.32;99777.41;4993754;28;19979;-89
2023/01/22 01:42:42;;;;;;;;;;;;;;;8.30;87.60;99776.66;5005476;28;19922;-93
2023/01/22 01:45:19;;;;;;;;;;;;;;;8.36;88.75;99792.41;4989936;28;20431;-91
2023/01/22 01:47:48;;;;;;;;;;;;;;;8.40;88.98;99788.88;4992132;28;19925;-94
2023/01/22 01:50:16;;;;;;;;;;;;;;;8.33;89.51;99792.41;5003516;28;19922;-95
2023/01/22 01:52:42;;;;;;;;;;;;;;;8.41;89.23;99790.63;5010095;28;20426;-92
2023/01/22 01:55:13;;;;;;;;;;;;;;;8.45;89.97;99802.03;5010953;28;19921;-92
2023/01/22 01:57:42;;;;;;;;;;;;;;;8.41;90.49;99800.28;5010636;28;19984;-92
2023/01/22 02:00:12;;;;;;;;;;;;;;;8.58;90.07;99789.69;5011041;28;19929;-91
2023/01/22 02:02:39;;;;;;;;;;;;;;;8.70;89.29;99787.00;5009058;28;19914;-91
2023/01/22 02:05:05;;;;;;;;;;;;;;;8.64;89.39;99784.41;5011157;28;20036;-90
2023/01/22 02:07:30;;;;;;;;;;;;;;;8.58;89.64;99789.69;5009839;28;20016;-89
2023/01/22 02:09:56;;;;;;;;;;;;;;;8.68;89.91;99796.66;5010031;28;19975;-91
2023/01/22 02:12:21;;;;;;;;;;;;;;;8.76;90.00;99796.63;5008298;28;19924;-90
2023/01/22 02:14:48;;;;;;;;;;;;;;;8.85;89.66;99790.41;5009068;28;19922;-89
2023/01/22 02:17:15;;;;;;;;;;;;;;;8.84;89.36;99789.53;5005969;28;19980;-89
2023/01/22 02:19:41;;;;;;;;;;;;;;;8.86;89.39;99795.66;4996362;28;19996;-91
2023/01/22 02:22:20;;;;;;;;;;;;;;;8.98;88.86;99796.50;4989452;28;19929;-89
2023/01/22 02:24:45;;;;;;;;;;;;;;;9.16;88.18;99792.81;4990873;28;19940;-91
2023/01/22 02:27:11;;;;;;;;;;;;;;;9.22;87.59;99792.78;4990078;28;20331;-89
2023/01/22 02:29:36;;;;;;;;;;;;;;;9.24;86.82;99802.41;4990905;28;19929;-89
2023/01/22 02:32:01;;;;;;;;;;;;;;;9.25;86.04;99805.91;4988740;28;19926;-90
2023/01/22 02:34:27;;;;;;;;;;;;;;;9.11;87.10;99800.75;4989319;28;19918;-90
2023/01/22 02:36:52;;;;;;;;;;;;;;;9.17;86.40;99797.22;4989674;28;19925;-90
2023/01/22 02:39:18;;;;;;;;;;;;;;;9.10;85.94;99791.13;4989953;28;20370;-92
2023/01/22 02:41:43;;;;;;;;;;;;;;;9.15;86.04;99797.22;4989509;28;19922;-89
2023/01/22 02:44:09;;;;;;;;;;;;;;;9.07;86.91;99792.03;4989975;28;20376;-89
2023/01/22 02:46:34;;;;;;;;;;;;;;;9.11;86.42;99796.38;4989588;28;19925;-88
2023/01/22 02:48:59;;;;;;;;;;;;;;;9.29;84.98;99794.50;4999784;28;20398;-90
2023/01/22 02:51:25;;;;;;;;;;;;;;;9.06;86.29;99799.94;5007302;28;19925;-90
2023/01/22 02:53:50;;;;;;;;;;;;;;;8.75;87.87;99806.25;5008197;28;19929;-90
2023/01/22 02:56:16;;;;;;;;;;;;;;;8.90;87.06;99807.94;5009345;28;19976;-90
2023/01/22 02:58:41;;;;;;;;;;;;;;;9.00;87.34;99805.22;4991009;28;19925;-91
2023/01/22 03:01:17;;;;;;;;;;;;;;;8.96;87.19;99800.00;5006595;28;20315;-92
2023/01/22 03:03:42;;;;;;;;;;;;;;;9.09;87.10;99787.59;5008193;28;19918;-92
2023/01/22 03:06:08;;;;;;;;;;;;;;;9.02;86.66;99778.03;5000306;28;19985;-90
2023/01/22 03:08:34;;;;;;;;;;;;;;;8.92;87.13;99774.56;4988313;28;19929;-91
2023/01/22 03:10:59;;;;;;;;;;;;;;;8.96;87.37;99788.59;4988839;28;19925;-91
2023/01/22 03:21:42;;;;;;;;;;;;;;;8.77;88.00;99825.56;4989107;28;20406;-89
2023/01/22 03:24:08;;;;;;;;;;;;;;;8.73;88.69;99817.69;4987611;28;19980;-89
2023/01/22 03:26:34;;;;;;;;;;;;;;;8.81;87.74;99813.25;4990501;28;20434;-89
2023/01/22 03:28:59;;;;;;;;;;;;;;;8.77;88.32;99811.50;4990011;28;19928;-90
2023/01/22 03:31:25;;;;;;;;;;;;;;;8.72;88.48;99816.78;4993666;28;19926;-90
2023/01/22 03:33:50;;;;;;;;;;;;;;;8.85;88.51;99822.88;5008643;28;19928;-90
2023/01/22 03:36:15;;;;;;;;;;;;;;;8.93;87.97;99815.78;5008069;28;20322;-90
2023/01/22 03:38:41;;;;;;;;;;;;;;;9.05;86.97;99824.47;5009431;28;20449;-91
2023/01/22 03:41:07;;;;;;;;;;;;;;;9.01;87.14;99815.75;5008572;28;19929;-90
2023/01/22 03:43:33;;;;;;;;;;;;;;;9.15;86.61;99818.28;4990446;28;20079;-89
2023/01/22 03:46:19;;;;;;;;;;;;;;;8.94;86.69;99808.75;4988435;28;20509;-89
2023/01/22 03:48:44;;;;;;;;;;;;;;;8.99;87.07;99828.06;4988540;28;20020;-89
2023/01/22 03:51:11;;;;;;;;;;;;;;;8.96;86.85;99833.34;4988208;28;20012;-90
2023/01/22 03:53:36;;;;;;;;;;;;;;;8.97;86.54;99827.16;4988297;28;19921;-90
2023/01/22 03:56:03;;;;;;;;;;;;;;;8.88;86.74;99821.97;4988759;28;19928;-90
2023/01/22 03:58:29;;;;;;;;;;;;;;;9.04;86.25;99831.50;4989214;28;20016;-90
2023/01/22 04:00:56;;;;;;;;;;;;;;;9.05;86.90;99830.63;4988935;28;20091;-89
2023/01/22 04:03:25;;;;;;;;;;;;;;;9.24;85.38;99830.50;4988163;28;20391;-89
2023/01/22 04:05:51;;;;;;;;;;;;;;;8.86;86.45;99840.38;4996166;28;20067;-91
2023/01/22 04:08:16;;;;;;;;;;;;;;;8.80;87.21;99845.69;5004623;28;20028;-92
2023/01/22 04:10:42;;;;;;;;;;;;;;;8.94;86.62;99848.22;4987544;28;20343;-92
2023/01/22 04:13:08;;;;;;;;;;;;;;;8.87;87.07;99851.81;4987594;28;20048;-94
2023/01/22 04:15:33;;;;;;;;;;;;;;;8.60;88.15;99853.66;4996892;28;20339;-93
2023/01/22 04:17:59;;;;;;;;;;;;;;;8.77;88.50;99867.63;5006862;28;19921;-92
2023/01/22 04:20:24;;;;;;;;;;;;;;;8.91;87.57;99872.81;5005161;28;19976;-92
2023/01/22 04:22:50;;;;;;;;;;;;;;;8.68;88.45;99869.41;4989715;28;19956;-91
2023/01/22 04:25:15;;;;;;;;;;;;;;;8.66;88.02;99847.50;5006151;28;20418;-89
2023/01/22 04:27:42;;;;;;;;;;;;;;;8.88;88.12;99890.34;4997879;28;19925;-89
2023/01/22 04:30:08;;;;;;;;;;;;;;;8.96;87.88;99892.06;4987211;28;19926;-89
2023/01/22 04:32:33;;;;;;;;;;;;;;;8.79;88.89;99893.94;4987785;28;19925;-90
2023/01/22 04:34:58;;;;;;;;;;;;;;;8.80;89.10;99892.16;4987589;28;19922;-90
2023/01/22 04:37:24;;;;;;;;;;;;;;;8.91;88.93;99901.75;4986372;28;19921;-89
2023/01/22 04:39:49;;;;;;;;;;;;;;;8.99;88.05;99904.34;4988137;28;19932;-89
2023/01/22 04:42:14;;;;;;;;;;;;;;;9.05;87.60;99912.22;5006410;28;19925;-89
2023/01/22 04:44:41;;;;;;;;;;;;;;;8.58;89.74;99908.88;5007339;28;19964;-90
2023/01/22 04:47:06;;;;;;;;;;;;;;;8.85;89.28;99904.41;5007854;28;20016;-89
2023/01/22 04:49:32;;;;;;;;;;;;;;;8.93;88.37;99901.75;5003655;28;20044;-89
2023/01/22 04:51:57;;;;;;;;;;;;;;;8.97;88.11;99898.22;4998833;28;20020;-89
2023/01/22 04:54:22;;;;;;;;;;;;;;;9.07;87.77;99905.19;5008350;28;20000;-91
2023/01/22 04:56:47;;;;;;;;;;;;;;;9.14;87.04;99906.00;5008791;28;19925;-91
2023/01/22 04:59:13;;;;;;;;;;;;;;;9.14;86.96;99909.53;5015396;28;19953;-91
2023/01/22 05:01:38;;;;;;;;;;;;;;;9.10;87.34;99907.78;5014658;28;19914;-90
2023/01/22 05:04:03;;;;;;;;;;;;;;;9.09;87.45;99908.66;5014962;28;20494;-90
2023/01/22 05:06:29;;;;;;;;;;;;;;;9.12;88.05;99921.81;5004460;28;19933;-90
2023/01/22 05:08:54;;;;;;;;;;;;;;;9.20;87.48;99940.19;4993929;28;19925;-90
2023/01/22 05:11:20;;;;;;;;;;;;;;;9.27;86.96;99941.06;4994524;28;19928;-91
2023/01/22 05:13:45;;;;;;;;;;;;;;;9.22;87.08;99943.72;4993055;28;20017;-92
2023/01/22 05:16:10;;;;;;;;;;;;;;;9.25;86.83;99958.59;4999957;28;19928;-91
2023/01/22 05:18:37;;;;;;;;;;;;;;;8.92;88.41;99955.25;4993182;28;20326;-93
2023/01/22 05:21:04;;;;;;;;;;;;;;;9.01;88.52;99960.47;4992715;28;19980;-91
2023/01/22 05:23:30;;;;;;;;;;;;;;;9.01;88.45;99970.13;4994550;28;20461;-92
2023/01/22 05:25:56;;;;;;;;;;;;;;;9.08;88.17;99962.19;4993391;28;19957;-92
2023/01/22 05:28:21;;;;;;;;;;;;;;;9.24;87.80;99973.53;5007583;28;20421;-91
2023/01/22 05:30:47;;;;;;;;;;;;;;;9.25;86.97;99975.28;5006870;28;20451;-91
2023/01/22 05:33:14;;;;;;;;;;;;;;;9.42;86.86;99977.81;4987494;28;19930;-92
2023/01/22 05:35:40;;;;;;;;;;;;;;;9.37;86.01;99976.09;5013425;28;19949;-92
2023/01/22 05:38:06;;;;;;;;;;;;;;;9.32;86.39;99981.38;4996226;28;19972;-91
2023/01/22 05:40:32;;;;;;;;;;;;;;;9.31;86.85;99988.41;5014020;28;20399;-91
2023/01/22 05:42:57;;;;;;;;;;;;;;;9.32;86.91;99990.13;5012944;28;20007;-89
2023/01/22 05:45:22;;;;;;;;;;;;;;;9.28;86.95;99985.78;5012332;28;19964;-90
2023/01/22 05:47:52;;;;;;;;;;;;;;;9.26;86.84;99999.84;5013945;28;19917;-90
2023/01/22 05:50:17;;;;;;;;;;;;;;;9.31;86.46;99998.94;5020262;28;20032;-89
2023/01/22 05:52:43;;;;;;;;;;;;;;;9.31;86.73;99988.41;5025660;28;19961;-91
2023/01/22 05:55:08;;;;;;;;;;;;;;;9.05;87.35;99985.91;5023023;28;19928;-90
2023/01/22 05:57:35;;;;;;;;;;;;;;;9.00;87.55;99987.66;5011975;28;19926;-90
2023/01/22 06:00:01;;;;;;;;;;;;;;;8.86;89.34;99986.84;5012211;28;19976;-90
2023/01/22 06:02:26;;;;;;;;;;;;;;;8.97;88.73;99987.66;5015360;28;19921;-90
2023/01/22 06:04:52;;;;;;;;;;;;;;;9.03;89.26;99981.50;4999069;28;20379;-88
2023/01/22 06:07:17;;;;;;;;;;;;;;;9.13;89.09;99980.59;4996023;28;19929;-88
2023/01/22 06:09:43;;;;;;;;;;;;;;;9.27;88.13;99980.53;4993397;28;19966;-86
2023/01/22 06:12:08;;;;;;;;;;;;;;;9.33;87.84;99988.41;4993003;28;20392;-89
2023/01/22 06:14:33;;;;;;;;;;;;;;;9.24;87.76;99994.59;4992607;28;19926;-89
2023/01/22 06:17:00;;;;;;;;;;;;;;;9.39;88.09;100006.81;5015787;28;19984;-90
2023/01/22 06:19:26;;;;;;;;;;;;;;;9.33;87.44;100004.19;5024370;28;20009;-86
2023/01/22 06:21:51;;;;;;;;;;;;;;;9.34;87.77;100015.59;5003994;28;20108;-93
2023/01/22 06:24:17;;;;;;;;;;;;;;;9.12;87.92;100026.22;5008731;28;19922;-93
2023/01/22 06:26:43;;;;;;;;;;;;;;;9.08;88.94;100038.53;5007447;28;20375;-89
2023/01/22 06:29:08;;;;;;;;;;;;;;;8.95;89.66;100045.56;5008885;28;19997;-92
2023/01/22 06:31:33;;;;;;;;;;;;;;;9.02;89.57;100051.69;5023557;28;19953;-88
2023/01/22 06:33:59;;;;;;;;;;;;;;;9.22;88.64;100054.25;5024034;28;19952;-93
2023/01/22 06:36:24;;;;;;;;;;;;;;;9.05;89.92;100056.06;5009132;28;19983;-93
2023/01/22 06:38:49;;;;;;;;;;;;;;;9.23;88.99;100060.41;5009511;28;19921;-90
2023/01/22 06:41:17;;;;;;;;;;;;;;;9.07;89.47;100070.97;5008788;28;20058;-91
2023/01/22 06:43:42;;;;;;;;;;;;;;;9.15;89.49;100070.94;5008173;28;19921;-89
2023/01/22 06:46:09;;;;;;;;;;;;;;;9.22;88.61;100072.69;5007807;28;19976;-92
2023/01/22 06:48:35;;;;;;;;;;;;;;;9.12;89.14;100068.31;5007870;28;19929;-91
2023/01/22 06:51:00;;;;;;;;;;;;;;;9.23;88.38;100069.16;4991376;28;20001;-91
2023/01/22 06:53:26;;;;;;;;;;;;;;;9.26;87.96;100063.88;5008327;28;19968;-91
2023/01/22 06:55:52;;;;;;;;;;;;;;;9.04;89.25;100063.09;5003768;28;19929;-90
2023/01/22 06:58:18;;;;;;;;;;;;;;;8.74;91.39;100067.53;4991983;28;19925;-89
2023/01/22 07:00:43;;;;;;;;;;;;;;;8.91;90.79;100061.34;5001883;28;19929;-94
2023/01/22 07:03:10;;;;;;;;;;;;;;;9.07;90.70;100070.97;5005833;28;19922;-92
2023/01/22 07:05:35;;;;;;;;;;;;;;;9.09;90.09;100076.22;5010830;28;19922;-88
2023/01/22 07:08:03;;;;;;;;;;;;;;;9.33;89.69;100075.28;4991229;28;19988;-92
2023/01/22 07:10:30;;;;;;;;;;;;;;;9.38;89.58;100078.75;4998221;28;19968;-92
2023/01/22 07:12:57;;;;;;;;;;;;;;;9.42;88.70;100084.88;5008428;28;19921;-93
2023/01/22 07:15:24;;;;;;;;;;;;;;;9.49;88.98;100084.00;4997816;28;19925;-89
2023/01/22 07:17:51;;;;;;;;;;;;;;;9.48;88.87;100090.13;5002474;28;19913;-85
2023/01/22 07:20:16;;;;;;;;;;;;;;;9.61;89.22;100088.34;5009024;28;20388;-85
2023/01/22 07:22:41;;;;;;;;;;;;;;;9.68;88.81;100098.84;5007169;28;19921;-86
2023/01/22 07:25:07;;;;;;;;;;;;;;;9.69;88.83;100102.34;5004335;28;20391;-87
2023/01/22 07:27:33;;;;;;;;;;;;;;;9.81;88.26;100094.38;4996652;28;19922;-87
2023/01/22 07:29:59;;;;;;;;;;;;;;;9.86;88.22;100097.84;5003758;28;19979;-87
2023/01/22 07:32:25;;;;;;;;;;;;;;;10.00;87.14;100100.41;5006172;28;19926;-86
2023/01/22 07:34:50;;;;;;;;;;;;;;;10.07;86.73;100098.63;4993881;28;20299;-89
2023/01/22 07:37:15;;;;;;;;;;;;;;;10.00;86.70;100102.16;4987357;28;19929;-83
2023/01/22 07:39:41;;;;;;;;;;;;;;;9.95;87.55;100110.09;5003791;28;19984;-84
2023/01/22 07:42:06;;;;;;;;;;;;;;;9.84;88.59;100107.53;5007487;28;19980;-83
2023/01/22 07:44:31;;;;;;;;;;;;;;;9.85;89.07;100111.03;5006085;28;19926;-84
2023/01/22 07:46:57;;;;;;;;;;;;;;;10.02;88.57;100121.47;5007240;28;19956;-83
2023/01/22 07:49:22;;;;;;;;;;;;;;;10.10;88.31;100130.22;5004546;28;20371;-85
2023/01/22 07:51:48;;;;;;;;;;;;;;;10.08;88.32;100123.19;4994934;28;20379;-84
2023/01/22 07:54:13;;;;;;;;;;;;;;;10.09;88.75;100120.56;5003384;28;19933;-84
2023/01/22 07:56:38;;;;;;;;;;;;;;;9.75;89.94;100126.00;5002941;28;20429;-90
2023/01/22 07:59:04;;;;;;;;;;;;;;;9.98;89.80;100130.31;4994128;28;20113;-85
2023/01/22 08:01:30;;;;;;;;;;;;;;;9.96;90.68;100126.78;5006105;28;19925;-83
2023/01/22 08:03:56;;;;;;;;;;;;;;;10.06;90.53;100139.03;5005301;28;20359;-90
2023/01/22 08:06:21;;;;;;;;;;;;;;;10.14;89.70;100131.94;5002258;28;19925;-88
2023/01/22 08:08:47;;;;;;;;;;;;;;;10.17;89.56;100142.47;4992129;28;19961;-88
2023/01/22 08:11:13;;;;;;;;;;;;;;;10.20;90.38;100145.09;4994236;28;19918;-88
2023/01/22 08:13:38;;;;;;;;;;;;;;;10.34;90.02;100142.38;5000381;28;19921;-85
2023/01/22 08:16:03;;;;;;;;;;;;;;;10.37;90.47;100152.06;4993261;28;19925;-91
2023/01/22 08:18:29;;;;;;;;;;;;;;;10.30;90.33;100150.28;5007495;28;19917;-85
2023/01/22 08:20:54;;;;;;;;;;;;;;;10.30;90.67;100153.84;5008978;28;19967;-87
2023/01/22 08:23:19;;;;;;;;;;;;;;;10.27;91.02;100148.56;5009395;28;19968;-86
2023/01/22 08:25:45;;;;;;;;;;;;;;;10.25;90.93;100158.22;5009572;28;20419;-86
2023/01/22 08:28:10;;;;;;;;;;;;;;;10.21;91.78;100156.53;5006129;28;19921;-87
2023/01/22 08:30:35;;;;;;;;;;;;;;;10.38;90.73;100151.19;4988881;28;20412;-86
2023/01/22 08:33:04;;;;;;;;;;;;;;;10.53;90.39;100161.63;4988770;28;19925;-88
2023/01/22 08:35:29;;;;;;;;;;;;;;;10.68;90.00;100172.94;4989618;28;19922;-88
2023/01/22 08:38:01;;;;;;;;;;;;;;;10.61;90.36;100172.06;5002147;28;19933;-86
2023/01/22 08:40:27;;;;;;;;;;;;;;;10.66;90.57;100180.84;5009165;28;20749;-87
2023/01/22 08:42:53;;;;;;;;;;;;;;;10.85;90.56;100178.94;5009666;28;19922;-87
2023/01/22 08:45:18;;;;;;;;;;;;;;;10.90;90.77;100190.31;5008912;28;20498;-87
2023/01/22 08:47:44;;;;;;;;;;;;;;;11.04;90.50;100194.63;5009123;28;19961;-88
2023/01/22 08:50:09;;;;;;;;;;;;;;;11.07;89.79;100191.94;5009219;28;19918;-88
2023/01/22 08:52:34;;;;;;;;;;;;;;;10.79;90.74;100191.31;5008678;28;19917;-88
2023/01/22 08:55:00;;;;;;;;;;;;;;;10.96;90.43;100186.75;5007985;28;19922;-87
2023/01/22 08:57:25;;;;;;;;;;;;;;;10.98;89.68;100179.69;5005877;28;19933;-89
2023/01/22 08:59:50;;;;;;;;;;;;;;;11.02;89.75;100186.72;5007127;28;20406;-91
2023/01/22 09:02:16;;;;;;;;;;;;;;;11.04;89.12;100187.56;5007861;28;19929;-92
2023/01/22 09:04:41;;;;;;;;;;;;;;;11.03;88.70;100191.09;5004632;28;20426;-94
2023/01/22 09:07:07;;;;;;;;;;;;;;;10.97;88.90;100171.78;5009169;28;20025;-90
2023/01/22 09:09:32;;;;;;;;;;;;;;;10.39;91.74;100168.72;5007438;28;19922;-90
2023/01/22 09:11:58;;;;;;;;;;;;;;;10.54;92.85;100163.34;5006108;28;19921;-89
2023/01/22 09:14:23;;;;;;;;;;;;;;;10.30;94.04;100168.75;5007611;28;19926;-89
2023/01/22 09:16:48;;;;;;;;;;;;;;;10.58;93.64;100166.81;5008383;28;19925;-88
2023/01/22 09:19:14;;;;;;;;;;;;;;;10.79;93.22;100170.19;5009417;28;19945;-88
2023/01/22 09:21:40;;;;;;;;;;;;;;;10.56;92.50;100163.34;5008677;28;19924;-92
2023/01/22 09:24:08;;;;;;;;;;;;;;;10.58;93.15;100172.09;4989692;28;20457;-93
2023/01/22 09:26:35;;;;;;;;;;;;;;;10.83;92.85;100169.28;5028052;28;19917;-93
2023/01/22 09:29:03;;;;;;;;;;;;;;;10.98;92.34;100169.13;5031963;28;19924;-94
2023/01/22 09:31:29;;;;;;;;;;;;;;;11.13;91.69;100168.13;5031265;28;20025;-91
2023/01/22 09:33:55;;;;;;;;;;;;;;;11.27;91.23;100174.13;5005296;28;19936;-92
2023/01/22 09:36:25;;;;;;;;;;;;;;;11.56;91.59;100165.03;5011579;28;19917;-90
2023/01/22 09:38:51;;;;;;;;;;;;;;;11.51;91.04;100161.56;5004443;28;19971;-88
2023/01/22 09:41:16;;;;;;;;;;;;;;;11.54;90.01;100153.63;5011021;28;19917;-93
2023/01/22 09:44:00;;;;;;;;;;;;;;;11.58;89.26;100157.09;5010695;28;19918;-93
2023/01/22 09:46:31;;;;;;;;;;;;;;;11.26;91.36;100167.13;5017588;28;19922;-94
2023/01/22 09:49:15;;;;;;;;;;;;;;;11.40;91.93;100161.69;5003980;28;19981;-94
2023/01/22 09:51:44;;;;;;;;;;;;;;;11.71;92.08;100161.34;4995270;28;19922;-93
2023/01/22 09:54:11;;;;;;;;;;;;;;;11.99;91.24;100161.88;5002603;28;19922;-96
2023/01/22 09:56:45;;;;;;;;;;;;;;;12.29;88.35;100156.19;5005160;28;20422;-93
2023/01/22 09:59:38;;;;;;;;;;;;;;;12.47;86.42;100158.56;5013786;28;20015;-95
2023/01/22 10:02:23;;;;;;;;;;;;;;;12.71;84.78;100153.75;5043100;23;20051;-94
2023/01/22 10:04:55;;;;;;;;;;;;;;;12.77;86.67;100147.50;4938281;29;19936;-94
2023/01/22 10:07:27;;;;;;;;;;;;;;;12.86;84.33;100148.22;4920114;29;19926;-94
2023/01/22 10:09:55;;;;;;;;;;;;;;;12.85;81.93;100141.19;4922480;29;19949;-95
2023/01/22 10:12:20;;;;;;;;;;;;;;;13.10;82.08;100139.84;4935896;29;19927;-93
2023/01/22 10:14:46;;;;;;;;;;;;;;;13.18;82.76;100141.47;4926345;29;19930;-91
2023/01/22 10:17:20;;;;;;;;;;;;;;;13.10;81.63;100138.09;4916422;29;20050;-93
2023/01/22 10:19:47;;;;;;;;;;;;;;;13.01;81.91;100138.28;4903565;29;19927;-94
2023/01/22 10:22:18;;;;;;;;;;;;;;;12.59;82.96;100140.72;4914172;29;20009;-93
2023/01/22 10:24:43;;;;;;;;;;;;;;;12.64;84.16;100141.56;4934953;29;20014;-92
2023/01/22 10:27:11;;;;;;;;;;;;;;;12.71;83.60;100145.81;4934321;29;20314;-92
2023/01/22 10:29:38;;;;;;;;;;;;;;;12.67;84.02;100142.38;4931894;29;19925;-91
2023/01/22 10:32:23;;;;;;;;;;;;;;;12.80;82.81;100140.38;4930783;29;19958;-91
2023/01/22 10:35:04;;;;;;;;;;;;;;;12.99;82.40;100154.19;4930181;29;19927;-90
2023/01/22 10:37:29;;;;;;;;;;;;;;;13.22;81.13;100143.19;4931992;29;20706;-90
2023/01/22 10:39:56;;;;;;;;;;;;;;;13.28;80.44;100147.47;4916401;29;19980;-92
2023/01/22 10:42:27;;;;;;;;;;;;;;;13.58;78.18;100142.53;4986999;28;19921;-91
2023/01/22 10:44:58;;;;;;;;;;;;;;;13.63;77.92;100143.28;5016653;28;20008;-91
2023/01/22 10:47:26;;;;;;;;;;;;;;;13.59;77.52;100138.94;5016455;28;19968;-91
2023/01/22 10:50:06;;;;;;;;;;;;;;;13.57;75.54;100138.97;5030589;28;20429;-92
2023/01/22 10:52:40;;;;;;;;;;;;;;;13.60;76.23;100146.88;5034645;28;19925;-91
2023/01/22 10:55:06;;;;;;;;;;;;;;;13.66;74.73;100137.06;5035572;28;19956;-92
2023/01/22 10:57:34;;;;;;;;;;;;;;;13.64;74.89;100133.56;5015214;28;20446;-91
2023/01/22 10:59:59;;;;;;;;;;;;;;;13.55;76.91;100130.19;5020813;28;19910;-90
2023/01/22 11:02:26;;;;;;;;;;;;;;;13.30;77.28;100135.09;5034987;28;19932;-92
2023/01/22 11:04:52;;;;;;;;;;;;;;;12.79;78.38;100125.41;5028976;28;19910;-92
2023/01/22 11:07:22;;;;;;;;;;;;;;;13.21;77.62;100135.25;4992601;28;19921;-89
2023/01/22 11:09:58;;;;;;;;;;;;;;;13.68;75.13;100130.81;4992612;28;19920;-88
2023/01/22 11:12:26;;;;;;;;;;;;;;;13.66;73.99;100131.75;4991738;28;19918;-90
2023/01/22 11:15:02;;;;;;;;;;;;;;;13.60;73.32;100138.06;5003063;28;20323;-90
2023/01/22 11:17:37;;;;;;;;;;;;;;;13.51;73.86;100155.00;5014267;28;20303;-90
2023/01/22 11:20:24;;;;;;;;;;;;;;;13.58;75.20;100153.13;5015059;28;19922;-91
2023/01/22 11:23:08;;;;;;;;;;;;;;;13.90;75.33;100146.25;5005814;28;19933;-93
2023/01/22 11:25:41;;;;;;;;;;;;;;;13.95;73.62;100144.41;5013786;28;20016;-93
2023/01/22 11:28:29;;;;;;;;;;;;;;;13.90;73.71;100138.31;5008003;28;19948;-91
2023/01/22 11:31:05;;;;;;;;;;;;;;;14.08;76.17;100137.91;5007565;28;20007;-90
2023/01/22 11:33:50;;;;;;;;;;;;;;;14.13;74.63;100130.72;5009989;28;19925;-91
2023/01/22 11:36:25;;;;;;;;;;;;;;;14.01;75.44;100125.69;4997998;28;19928;-96
2023/01/22 11:39:00;;;;;;;;;;;;;;;14.24;74.73;100126.94;5006175;28;20332;-91
2023/01/22 11:41:26;;;;;;;;;;;;;;;14.40;73.83;100125.69;5007016;28;19929;-91
2023/01/22 11:43:57;;;;;;;;;;;;;;;14.56;74.73;100123.53;5008227;28;19917;-91
2023/01/22 11:46:23;;;;;;;;;;;;;;;14.86;74.05;100118.41;5008208;28;20021;-92
2023/01/22 11:49:01;;;;;;;;;;;;;;;15.06;71.74;100132.91;5006454;28;20040;-90
2023/01/22 11:51:56;;;;;;;;;;;;;;;15.28;70.33;100123.47;5010234;28;19921;-93
2023/01/22 11:54:31;;;;;;;;;;;;;;;15.30;71.23;100118.97;4914669;29;19923;-91
2023/01/22 11:57:15;;;;;;;;;;;;;;;15.21;69.98;100133.41;4922221;29;19926;-90
2023/01/22 11:59:48;;;;;;;;;;;;;;;15.19;71.42;100127.25;4915790;29;19992;-93
2023/01/22 12:02:46;;;;;;;;;;;;;;;15.33;71.20;100124.19;4916139;29;20009;-95
2023/01/22 12:05:30;;;;;;;;;;;;;;;15.08;70.89;100133.78;4866835;29;19983;-92
2023/01/22 12:08:21;;;;;;;;;;;;;;;15.01;71.23;100139.25;4861533;29;19927;-95
2023/01/22 12:10:48;;;;;;;;;;;;;;;15.19;69.74;100135.22;4819068;29;19929;-92
2023/01/22 12:13:17;;;;;;;;;;;;;;;15.17;69.08;100137.06;4820991;29;19954;-91
2023/01/22 12:15:45;;;;;;;;;;;;;;;15.03;69.86;100140.06;4820181;29;19927;-94
2023/01/22 12:18:29;;;;;;;;;;;;;;;15.06;70.09;100140.91;4808390;29;20317;-91
2023/01/22 12:20:55;;;;;;;;;;;;;;;14.81;71.50;100150.38;4822689;29;19920;-94
2023/01/22 12:23:32;;;;;;;;;;;;;;;14.43;73.40;100144.19;4822875;29;19925;-95
2023/01/22 12:26:01;;;;;;;;;;;;;;;14.61;73.71;100152.63;4809789;29;20019;-95
2023/01/22 12:28:40;;;;;;;;;;;;;;;14.54;72.52;100151.03;4827309;29;19932;-93
2023/01/22 12:31:09;;;;;;;;;;;;;;;14.39;74.21;100147.81;4857300;29;20739;-96
2023/01/22 12:33:43;;;;;;;;;;;;;;;14.46;73.33;100152.06;4875531;29;19927;-96
2023/01/22 12:36:12;;;;;;;;;;;;;;;14.27;73.36;100153.41;4867151;29;19931;-92
2023/01/22 12:38:40;;;;;;;;;;;;;;;14.50;72.37;100156.41;4868171;29;19999;-93
2023/01/22 12:41:15;;;;;;;;;;;;;;;14.47;72.39;100159.16;4920062;28;19926;-94
2023/01/22 12:43:51;;;;;;;;;;;;;;;14.40;72.35;100154.00;4933480;29;19926;-93
2023/01/22 12:46:34;;;;;;;;;;;;;;;14.08;72.27;100152.97;4923836;29;19923;-91
2023/01/22 12:49:02;;;;;;;;;;;;;;;13.93;72.88;100164.75;4997173;28;19926;-91
2023/01/22 12:51:46;;;;;;;;;;;;;;;13.83;73.36;100155.28;5001014;28;20007;-94
2023/01/22 12:54:27;;;;;;;;;;;;;;;13.74;73.55;100161.63;5005444;28;19925;-90
2023/01/22 12:56:56;;;;;;;;;;;;;;;13.98;73.69;100168.22;5006539;28;19921;-93
2023/01/22 12:59:39;;;;;;;;;;;;;;;14.06;72.98;100168.91;4984172;28;19933;-91